Teigen, MT

10:09 AM MDT on August 29, 2015 (GMT -0600)
Lewistown Municipal | | Change Station
CLOSE
Current Station
Airport
Location: Lewistown,
Elevation: 4167 ft
Nearby Weather Stations
Active Advisory: Dense Smoke Advisory

Elev 4167 ft 47.05 °N, 109.47 °W | Updated 15 minutes ago

Overcast
Overcast
74 °F
Feels Like 74 °F
N
7
Wind Variable Wind from ESE

Today
High -- | Low -- °F
--% Chance of Precip.
Yesterday
High -- | Low -- °F
Precip. -- in
6:29 AM 8:00 PM
Full, 100% visible
Pressure 29.88 in
Visibility 3.0 miles
Clouds Few 3500 ft
Dew Point 48 °F
Humidity 40%
Rainfall 0.00 in
Snow Depth Not available.
UV 4 out of 12
Pollen 9.50 out of 12
Air Quality Not available.
Flu Activity Not available.
METAR KLWT 291554Z AUTO 11006KT 3SM HZ FEW035 23/09 A2999 RMK AO2 SLP116 T02330089 TSNO
Pressure 29.88 in
Visibility 3.0 miles
Clouds Few 3500 ft
Dew Point 48 °F
Humidity 40%
Rainfall 0.00 in
Snow Depth Not available.
UV 4 out of 12
Pollen 9.50 out of 12
Air Quality Not available.
Flu Activity Not available.
METAR KLWT 291554Z AUTO 11006KT 3SM HZ FEW035 23/09 A2999 RMK AO2 SLP116 T02330089 TSNO

10-Day Weather Forecast

×

Almanac

Astronomy

Aug. 29, 2015 Rise Set
Actual Time
Civil Twilight
Nautical Twilight
Astronomical Twilight
Moon
Length of Visible Light
Length of Day
Tomorrow will be .
, % of the Moon is Illuminated

Today's Extremes

State Highs State Lows

Community

WunderPhotos

Upload Photos

1,850,709 photos uploaded!

WunderBlogs® & News

Nearby

Air Quality

  Air Quality AQ Index Pollutant
Not available.

Snow Depth

Station Depth Elevation

Earthquake Activity

City Distance Mag. Time & Date
Minimum magnitude displayed is 2.5.

Coastal Water Temperatures

Place Temperature

Stations

Nearby Weather Stations

Station Location Temp. Windchill Dew Point Humidity Wind Precip. Elev Updated Type
                   
Dense Smoke Advisory
Statement as of 8:34 AM MDT on August 29, 2015

... Dense smoke advisory now in effect until 4 am MDT Monday...

The dense smoke advisory is now in effect until 4 am MDT Monday.

* Timing... through Monday morning.

* Impacts... unhealthy air quality.

* Visibility... 3 miles or less can be expected.

Precautionary/preparedness actions...

When air quality levels are very unhealthy... state and local
health officials recommend that people with respiratory or heart
disease... the elderly... and children should avoid any outdoor
activity; everyone else should avoid prolonged exertion.

For more information... visit the Montana department of
environmental quality at www.Todaysair.Mt.Gov.



Http://weather.Gov/Glasgow